createdAt,value
2022-12-28T00:01:52.681Z,101318.53
2022-12-28T00:04:20.585Z,101311.50
2022-12-28T00:06:50.756Z,101303.72
2022-12-28T00:09:18.642Z,101301.16
2022-12-28T00:11:47.965Z,101293.09
2022-12-28T00:14:15.909Z,101285.19
2022-12-28T00:16:44.443Z,101281.69
2022-12-28T00:19:15.383Z,101276.25
2022-12-28T00:21:43.723Z,101267.53
2022-12-28T00:24:18.907Z,101265.75
2022-12-28T00:26:48.331Z,101255.31
2022-12-28T00:29:16.588Z,101259.53
2022-12-28T00:31:45.931Z,101256.91
2022-12-28T00:34:14.283Z,101247.25
2022-12-28T00:37:10.103Z,101251.66
2022-12-28T00:39:30.563Z,101245.53
2022-12-28T00:41:59.817Z,101243.75
2022-12-28T00:44:27.730Z,101237.59
2022-12-28T00:46:55.554Z,101227.16
2022-12-28T00:49:23.363Z,101240.28
2022-12-28T00:51:51.247Z,101222.66
2022-12-28T00:54:19.263Z,101220.09
2022-12-28T00:56:47.970Z,101208.75
2022-12-28T00:59:17.498Z,101207.06
2022-12-28T01:01:45.426Z,101205.19
2022-12-28T01:04:15.136Z,101191.22
2022-12-28T01:06:42.945Z,101189.50
2022-12-28T01:09:10.880Z,101178.06
2022-12-28T01:11:38.682Z,101177.25
2022-12-28T01:14:06.465Z,101172.84
2022-12-28T01:16:37.831Z,101166.72
2022-12-28T01:19:08.061Z,101164.06
2022-12-28T01:21:37.217Z,101161.44
2022-12-28T01:24:07.769Z,101167.56
2022-12-28T01:26:35.827Z,101169.34
2022-12-28T01:29:04.250Z,101164.09
2022-12-28T01:31:33.551Z,101164.16
2022-12-28T01:34:03.418Z,101162.47
2022-12-28T01:36:33.094Z,101157.13
2022-12-28T01:39:03.654Z,101161.56
2022-12-28T01:41:33.498Z,101156.22
2022-12-28T01:44:47.352Z,101151.84
2022-12-28T01:47:19.708Z,101140.44
2022-12-28T01:49:55.367Z,101131.78
2022-12-28T01:52:26.513Z,101132.56
2022-12-28T01:54:59.428Z,101124.75
2022-12-28T01:57:31.090Z,101109.81
2022-12-28T02:00:03.479Z,101092.34
2022-12-28T02:02:41.308Z,101092.34
2022-12-28T02:05:10.830Z,101085.31
2022-12-28T02:07:47.676Z,101079.19
2022-12-28T02:10:40.863Z,101080.97
2022-12-28T02:13:05.813Z,101081.91
2022-12-28T02:15:33.795Z,101068.75
2022-12-28T02:18:01.977Z,101068.69
2022-12-28T02:20:42.253Z,101073.09
2022-12-28T02:23:29.129Z,101057.38
2022-12-28T02:26:31.622Z,101057.31
2022-12-28T02:29:17.801Z,101060.00
2022-12-28T02:31:53.784Z,101053.84
2022-12-28T02:34:27.954Z,101047.72
2022-12-28T02:37:02.519Z,101043.31
2022-12-28T02:39:39.420Z,101039.84
2022-12-28T02:42:10.829Z,101045.13
2022-12-28T02:44:57.833Z,101039.00
2022-12-28T02:47:42.950Z,101032.94
2022-12-28T02:50:14.911Z,101018.88
2022-12-28T02:53:21.359Z,101015.38
2022-12-28T02:56:08.511Z,101006.66
2022-12-28T02:58:55.591Z,101003.13
2022-12-28T03:01:43.649Z,101008.38
2022-12-28T03:04:25.186Z,101002.22
2022-12-28T03:07:18.895Z,101006.63
2022-12-28T03:09:51.661Z,101004.00
2022-12-28T03:12:26.529Z,100997.00
2022-12-28T03:15:00.093Z,100990.91
2022-12-28T03:17:50.813Z,100975.13
2022-12-28T03:20:40.951Z,100975.09
2022-12-28T03:23:30.172Z,100961.06
2022-12-28T03:26:19.384Z,100953.16
2022-12-28T03:29:09.502Z,100959.31
2022-12-28T03:31:42.534Z,100950.53
2022-12-28T03:34:14.907Z,100961.00
2022-12-28T03:37:04.770Z,100947.00
2022-12-28T03:39:37.471Z,100948.78
2022-12-28T03:42:32.758Z,100927.69
2022-12-28T03:45:07.510Z,100918.91
2022-12-28T03:47:38.835Z,100914.53
2022-12-28T03:50:08.700Z,100910.19
2022-12-28T03:52:36.595Z,100915.41
2022-12-28T03:55:06.701Z,100904.88
2022-12-28T03:57:34.506Z,100894.38
2022-12-28T04:00:06.229Z,100883.00
2022-12-28T04:02:43.948Z,100876.81
2022-12-28T04:05:13.940Z,100867.22
2022-12-28T04:07:42.654Z,100864.56
2022-12-28T04:10:10.832Z,100854.03
2022-12-28T04:12:38.676Z,100854.06
2022-12-28T04:15:22.180Z,100846.13
2022-12-28T04:17:50.027Z,100826.00
2022-12-28T04:20:19.772Z,100822.47
2022-12-28T04:22:47.871Z,100820.72
2022-12-28T04:25:15.838Z,100806.66
2022-12-28T04:27:44.751Z,100798.78
2022-12-28T04:30:32.324Z,100794.41
2022-12-28T04:33:00.110Z,100789.16
2022-12-28T04:35:30.178Z,100782.09
2022-12-28T04:37:58.150Z,100773.31
2022-12-28T04:40:25.907Z,100782.97
2022-12-28T04:42:53.719Z,100771.56
2022-12-28T04:45:22.294Z,100770.63
2022-12-28T04:47:50.309Z,100764.56
2022-12-28T04:50:18.227Z,100759.28
2022-12-28T04:52:47.397Z,100759.31
2022-12-28T04:55:32.761Z,100750.50
2022-12-28T04:58:01.514Z,100766.25
2022-12-28T05:00:29.417Z,100747.81
2022-12-28T05:03:00.473Z,100754.00
2022-12-28T05:05:28.608Z,100739.91
2022-12-28T05:08:01.853Z,100739.94
2022-12-28T05:10:30.263Z,100738.13
2022-12-28T05:12:58.343Z,100727.63
2022-12-28T05:15:26.190Z,100731.09
2022-12-28T05:17:55.663Z,100729.31
2022-12-28T05:20:23.423Z,100727.56
2022-12-28T05:22:51.278Z,100734.59
2022-12-28T05:25:20.420Z,100724.03
2022-12-28T05:27:48.207Z,100711.81
2022-12-28T05:30:16.004Z,100719.56
2022-12-28T05:32:43.886Z,100722.16
2022-12-28T05:35:11.746Z,100715.19
2022-12-28T05:37:39.599Z,100705.47
2022-12-28T05:40:08.680Z,100714.41
2022-12-28T05:42:37.791Z,100700.28
2022-12-28T05:45:06.323Z,100701.13
2022-12-28T05:47:34.316Z,100702.78
2022-12-28T05:50:02.153Z,100690.53
2022-12-28T05:52:30.191Z,100699.44
2022-12-28T05:54:58.003Z,100695.88
2022-12-28T05:57:25.762Z,100688.03
2022-12-28T05:59:54.962Z,100687.16
2022-12-28T06:02:25.688Z,100678.50
2022-12-28T06:04:53.583Z,100683.63
2022-12-28T06:07:23.916Z,100676.63
2022-12-28T06:09:51.851Z,100674.91
2022-12-28T06:12:19.810Z,100672.22
2022-12-28T06:14:47.740Z,100662.72
2022-12-28T06:17:16.991Z,100669.56
2022-12-28T06:19:44.753Z,100664.28
2022-12-28T06:22:12.551Z,100654.75
2022-12-28T06:24:40.317Z,100653.75
2022-12-28T06:27:08.209Z,100655.63
2022-12-28T06:29:36.089Z,100645.91
2022-12-28T06:32:03.955Z,100647.63
2022-12-28T06:34:33.232Z,100634.56
2022-12-28T06:37:01.006Z,100643.41
2022-12-28T06:39:29.131Z,100635.47
2022-12-28T06:41:56.883Z,100633.66
2022-12-28T06:44:24.649Z,100625.91
2022-12-28T06:46:52.496Z,100636.28
2022-12-28T06:49:20.409Z,100630.13
2022-12-28T06:51:49.610Z,100631.03
2022-12-28T06:54:17.373Z,100628.31
2022-12-28T06:56:45.328Z,100637.19
2022-12-28T06:59:13.203Z,100626.66
2022-12-28T07:01:44.637Z,100645.16
2022-12-28T07:04:13.342Z,100641.63
2022-12-28T07:06:43.264Z,100644.19
2022-12-28T07:09:15.315Z,100638.91
2022-12-28T07:11:43.605Z,100639.84
2022-12-28T07:14:11.827Z,100643.28
2022-12-28T07:19:06.389Z,100638.03
2022-12-28T07:21:35.874Z,100638.91
2022-12-28T07:24:04.588Z,100630.97
2022-12-28T07:26:36.011Z,100623.97
2022-12-28T07:29:06.118Z,100625.69
2022-12-28T07:31:40.004Z,100625.69
2022-12-28T07:34:12.717Z,100616.88
2022-12-28T07:36:40.545Z,100623.88
2022-12-28T07:39:09.069Z,100616.81
2022-12-28T07:41:38.370Z,100626.47
2022-12-28T07:44:07.594Z,100616.78
2022-12-28T07:46:37.279Z,100615.06
2022-12-28T07:49:05.408Z,100615.03
2022-12-28T07:51:36.195Z,100629.13
2022-12-28T07:54:05.390Z,100623.84
2022-12-28T07:59:05.339Z,100610.66
2022-12-28T08:01:35.804Z,100619.31
2022-12-28T08:04:07.055Z,100616.53
2022-12-28T08:06:37.333Z,100621.13
2022-12-28T08:09:06.536Z,100615.00
2022-12-28T08:11:36.859Z,100612.19
2022-12-28T08:14:07.167Z,100630.63
2022-12-28T08:16:37.934Z,100616.66
2022-12-28T08:19:06.188Z,100613.13
2022-12-28T08:21:36.597Z,100621.06
2022-12-28T08:24:06.110Z,100608.72
2022-12-28T08:26:36.778Z,100613.94
2022-12-28T08:29:08.153Z,100621.72
2022-12-28T08:31:38.053Z,100618.31
2022-12-28T08:34:07.915Z,100616.66
2022-12-28T08:36:36.398Z,100621.84
2022-12-28T08:39:04.351Z,100623.56
2022-12-28T08:41:32.541Z,100625.28
2022-12-28T08:44:00.812Z,100624.53
2022-12-28T08:46:31.639Z,100628.97
2022-12-28T08:49:01.092Z,100624.44
2022-12-28T08:51:32.376Z,100622.63
2022-12-28T08:54:00.385Z,100620.81
2022-12-28T08:56:30.401Z,100616.44
2022-12-28T08:58:59.397Z,100614.59
2022-12-28T09:01:29.604Z,100623.41
2022-12-28T09:04:00.758Z,100616.34
2022-12-28T09:06:31.847Z,100621.66
2022-12-28T09:09:08.291Z,100620.84
2022-12-28T09:11:37.080Z,100622.47
2022-12-28T09:14:06.431Z,100622.28
2022-12-28T09:16:34.338Z,100619.63
2022-12-28T09:19:06.838Z,100617.84
2022-12-28T09:21:38.866Z,100630.16
2022-12-28T09:24:08.142Z,100619.66
2022-12-28T09:26:37.973Z,100621.41
2022-12-28T09:29:08.765Z,100616.06
2022-12-28T09:31:37.561Z,100623.19
2022-12-28T09:36:55.810Z,100622.94
2022-12-28T09:39:24.971Z,100631.69
2022-12-28T09:41:56.857Z,100622.75
2022-12-28T09:45:01.229Z,100624.47
2022-12-28T09:47:43.232Z,100626.34
2022-12-28T09:50:47.831Z,100618.47
2022-12-28T09:53:30.540Z,100620.94
2022-12-28T09:56:04.639Z,100614.59
2022-12-28T09:58:35.096Z,100618.00
2022-12-28T10:01:05.305Z,100620.78
2022-12-28T10:03:38.128Z,100613.84
2022-12-28T10:06:13.604Z,100610.19
2022-12-28T10:08:45.902Z,100606.75
2022-12-28T10:11:18.805Z,100601.16
2022-12-28T10:13:55.541Z,100591.53
2022-12-28T10:16:26.600Z,100592.38
2022-12-28T10:18:55.155Z,100593.94
2022-12-28T10:21:32.383Z,100598.34
2022-12-28T10:24:30.445Z,100586.13
2022-12-28T10:26:50.032Z,100584.34
2022-12-28T10:29:21.042Z,100587.41
2022-12-28T10:31:59.613Z,100581.38
2022-12-28T10:34:33.369Z,100582.09
2022-12-28T10:37:14.750Z,100582.06
2022-12-28T10:39:51.697Z,100582.66
2022-12-28T10:42:27.268Z,100582.78
2022-12-28T10:45:03.053Z,100574.84
2022-12-28T10:47:36.036Z,100567.66
2022-12-28T10:50:35.927Z,100570.50
2022-12-28T10:53:00.845Z,100563.41
2022-12-28T10:55:33.196Z,100569.84
2022-12-28T10:58:29.195Z,100572.41
2022-12-28T11:01:03.864Z,100570.41
2022-12-28T11:03:35.292Z,100573.25
2022-12-28T11:06:16.133Z,100564.66
2022-12-28T11:09:01.698Z,100567.25
2022-12-28T11:11:30.176Z,100554.38
2022-12-28T11:14:03.533Z,100562.13
2022-12-28T11:16:42.493Z,100567.19
2022-12-28T11:19:12.762Z,100559.50
2022-12-28T11:21:42.101Z,100556.78
2022-12-28T11:24:19.656Z,100556.66
2022-12-28T11:26:51.018Z,100547.72
2022-12-28T11:29:21.041Z,100556.44
2022-12-28T11:32:01.472Z,100553.91
2022-12-28T11:34:40.212Z,100555.63
2022-12-28T11:37:14.495Z,100556.84
2022-12-28T11:39:50.548Z,100554.34
2022-12-28T11:42:52.291Z,100554.25
2022-12-28T11:45:55.042Z,100544.53
2022-12-28T11:49:00.824Z,100539.09
2022-12-28T11:51:31.013Z,100540.41
2022-12-28T11:54:01.366Z,100537.53
2022-12-28T11:57:00.461Z,100533.91
2022-12-28T11:59:30.241Z,100525.09
2022-12-28T12:02:01.090Z,100528.69
2022-12-28T12:04:51.964Z,100523.72
2022-12-28T12:07:31.075Z,100529.97
2022-12-28T12:10:41.871Z,100528.25
2022-12-28T12:13:51.119Z,100525.72
2022-12-28T12:16:28.137Z,100525.66
2022-12-28T12:18:59.198Z,100518.66
2022-12-28T12:21:33.667Z,100510.34
2022-12-28T12:24:18.392Z,100514.00
2022-12-28T12:26:51.919Z,100508.41
2022-12-28T12:29:24.939Z,100503.72
2022-12-28T12:32:03.427Z,100505.25
2022-12-28T12:34:43.076Z,100500.19
2022-12-28T12:37:38.640Z,100500.00
2022-12-28T12:40:33.571Z,100510.78
2022-12-28T12:43:29.215Z,100515.97
2022-12-28T12:46:14.979Z,100511.50
2022-12-28T12:49:04.354Z,100508.28
2022-12-28T12:51:38.433Z,100503.97
2022-12-28T12:54:21.455Z,100504.56
2022-12-28T12:56:55.241Z,100500.31
2022-12-28T12:59:41.126Z,100500.31
2022-12-28T13:02:35.249Z,100499.34
2022-12-28T13:05:06.758Z,100498.59
2022-12-28T13:07:35.546Z,100495.84
2022-12-28T13:10:06.431Z,100487.66
2022-12-28T13:12:34.585Z,100483.28
2022-12-28T13:15:12.308Z,100479.53
2022-12-28T13:17:41.057Z,100477.00
2022-12-28T13:20:12.235Z,100472.53
2022-12-28T13:22:43.750Z,100472.19
2022-12-28T13:25:25.093Z,100470.59
2022-12-28T13:27:53.514Z,100465.16
2022-12-28T13:30:23.644Z,100465.16
2022-12-28T13:32:53.737Z,100460.72
2022-12-28T13:35:25.120Z,100464.38
2022-12-28T13:38:04.538Z,100450.22
2022-12-28T13:40:33.976Z,100464.16
2022-12-28T13:43:23.002Z,100451.69
2022-12-28T13:45:54.938Z,100446.41
2022-12-28T13:48:24.633Z,100447.13
2022-12-28T13:50:54.836Z,100447.13
2022-12-28T13:53:27.170Z,100445.41
2022-12-28T13:55:58.725Z,100441.78
2022-12-28T13:58:31.657Z,100441.13
2022-12-28T14:01:02.622Z,100438.22
2022-12-28T14:03:37.517Z,100443.09
2022-12-28T14:06:11.186Z,100433.25
2022-12-28T14:08:40.659Z,100440.44
2022-12-28T14:11:09.072Z,100442.75
2022-12-28T14:13:38.026Z,100432.50
2022-12-28T14:16:07.634Z,100433.78
2022-12-28T14:18:36.272Z,100434.59
2022-12-28T14:21:06.481Z,100427.75
2022-12-28T14:23:37.953Z,100429.44
2022-12-28T14:26:08.331Z,100435.75
2022-12-28T14:28:41.066Z,100432.59
2022-12-28T14:31:12.757Z,100438.47
2022-12-28T14:33:52.070Z,100433.06
2022-12-28T14:36:22.862Z,100428.72
2022-12-28T14:38:56.312Z,100432.94
2022-12-28T14:41:31.777Z,100430.84
2022-12-28T14:44:03.424Z,100431.06
2022-12-28T14:46:34.391Z,100431.75
2022-12-28T14:49:31.078Z,100426.53
2022-12-28T14:52:32.515Z,100419.84
2022-12-28T14:55:20.543Z,100416.34
2022-12-28T14:57:50.260Z,100424.31
2022-12-28T15:00:28.140Z,100415.63
2022-12-28T15:02:57.670Z,100412.13
2022-12-28T15:05:41.770Z,100413.53
2022-12-28T15:08:11.028Z,100407.44
2022-12-28T15:10:44.934Z,100410.94
2022-12-28T15:13:12.878Z,100405.09
2022-12-28T15:15:41.491Z,100409.28
2022-12-28T15:18:09.738Z,100409.06
2022-12-28T15:20:38.961Z,100403.50
2022-12-28T15:23:07.062Z,100402.59
2022-12-28T15:25:36.084Z,100404.31
2022-12-28T15:28:06.020Z,100404.16
2022-12-28T15:30:34.108Z,100402.50
2022-12-28T15:33:02.118Z,100406.13
2022-12-28T15:35:30.280Z,100397.56
2022-12-28T15:37:58.309Z,100400.75
2022-12-28T15:40:26.660Z,100397.50
2022-12-28T15:42:55.012Z,100390.47
2022-12-28T15:45:25.671Z,100386.13
2022-12-28T15:47:55.663Z,100383.19
2022-12-28T15:50:24.264Z,100384.31
2022-12-28T15:52:52.994Z,100361.44
2022-12-28T15:55:21.438Z,100372.06
2022-12-28T15:57:49.987Z,100369.63
2022-12-28T16:00:20.603Z,100370.22
2022-12-28T16:02:50.520Z,100364.28
2022-12-28T16:05:19.602Z,100368.84
2022-12-28T16:07:48.001Z,100363.94
2022-12-28T16:10:20.689Z,100362.78
2022-12-28T16:12:49.059Z,100358.47
2022-12-28T16:15:17.700Z,100353.78
2022-12-28T16:17:55.055Z,100371.28
2022-12-28T16:20:26.480Z,100372.78
2022-12-28T16:22:54.947Z,100364.00
2022-12-28T16:25:22.928Z,100357.50
2022-12-28T16:27:50.908Z,100350.28
2022-12-28T16:30:19.033Z,100350.75
2022-12-28T16:32:48.001Z,100346.91
2022-12-28T16:35:16.157Z,100347.69
2022-12-28T16:37:45.408Z,100340.75
2022-12-28T16:40:13.842Z,100328.59
2022-12-28T16:42:45.750Z,100330.16
2022-12-28T16:45:14.000Z,100323.91
2022-12-28T16:47:44.935Z,100315.31
2022-12-28T16:50:13.844Z,100310.09
2022-12-28T16:52:42.037Z,100309.09
2022-12-28T16:55:11.626Z,100301.25
2022-12-28T16:57:39.585Z,100299.31
2022-12-28T17:00:09.126Z,100297.19
2022-12-28T17:02:37.380Z,100296.78
2022-12-28T17:05:05.888Z,100286.50
2022-12-28T17:07:33.735Z,100279.31
2022-12-28T17:10:01.873Z,100275.28
2022-12-28T17:12:31.468Z,100280.59
2022-12-28T17:15:04.852Z,100283.41
2022-12-28T17:17:33.497Z,100280.50
2022-12-28T17:20:01.896Z,100284.78
2022-12-28T17:22:30.993Z,100283.09
2022-12-28T17:24:59.056Z,100272.66
2022-12-28T17:27:27.303Z,100278.94
2022-12-28T17:29:56.765Z,100268.09
2022-12-28T17:32:24.776Z,100264.75
2022-12-28T17:34:53.225Z,100258.53
2022-12-28T17:37:21.590Z,100247.94
2022-12-28T17:39:49.687Z,100245.31
2022-12-28T17:42:17.731Z,100245.34
2022-12-28T17:44:48.388Z,100234.88
2022-12-28T17:47:17.711Z,100236.50
2022-12-28T17:49:45.680Z,100227.50
2022-12-28T17:52:20.046Z,100230.28
2022-12-28T17:54:47.989Z,100224.03
2022-12-28T17:57:16.269Z,100213.59
2022-12-28T17:59:44.317Z,100207.38
2022-12-28T18:02:13.091Z,100195.94
2022-12-28T18:04:42.732Z,100193.91
2022-12-28T18:07:10.777Z,100188.72
2022-12-28T18:09:38.790Z,100187.00
2022-12-28T18:12:06.823Z,100183.22
2022-12-28T18:14:34.830Z,100186.09
2022-12-28T18:17:03.941Z,100167.44
2022-12-28T18:19:32.096Z,100166.69
2022-12-28T18:22:01.420Z,100168.81
2022-12-28T18:24:29.383Z,100159.56
2022-12-28T18:26:57.327Z,100155.69
2022-12-28T18:29:26.383Z,100150.25
2022-12-28T18:31:54.701Z,100136.16
2022-12-28T18:34:23.054Z,100148.66
2022-12-28T18:36:51.027Z,100154.28
2022-12-28T18:39:20.965Z,100140.28
2022-12-28T18:41:51.034Z,100149.97
2022-12-28T18:44:22.192Z,100138.56
2022-12-28T18:46:50.483Z,100128.16
2022-12-28T18:49:18.778Z,100118.44
2022-12-28T18:51:46.953Z,100128.09
2022-12-28T18:54:14.923Z,100115.66
2022-12-28T18:56:44.567Z,100111.59
2022-12-28T18:59:14.173Z,100098.19
2022-12-28T19:04:32.467Z,100089.31
2022-12-28T19:07:03.109Z,100096.59
2022-12-28T19:09:31.257Z,100086.75
2022-12-28T19:12:01.182Z,100083.59
2022-12-28T19:14:29.608Z,100073.09
2022-12-28T19:16:58.029Z,100064.19
2022-12-28T19:19:26.643Z,100074.22
2022-12-28T19:21:59.127Z,100079.75
2022-12-28T19:24:27.898Z,100070.13
2022-12-28T19:26:56.516Z,100064.03
2022-12-28T19:29:26.399Z,100064.94
2022-12-28T19:31:55.245Z,100063.38
2022-12-28T19:34:23.526Z,100056.50
2022-12-28T19:36:52.080Z,100052.94
2022-12-28T19:39:20.550Z,100063.47
2022-12-28T19:41:48.684Z,100052.63
2022-12-28T19:44:23.036Z,100054.78
2022-12-28T19:46:54.336Z,100056.25
2022-12-28T19:49:22.524Z,100062.25
2022-12-28T19:51:50.649Z,100048.41
2022-12-28T19:54:18.652Z,100052.69
2022-12-28T19:56:47.004Z,100051.06
2022-12-28T19:59:15.427Z,100049.72
2022-12-28T20:01:43.739Z,100038.03
2022-12-28T20:04:14.688Z,100041.13
2022-12-28T20:06:44.517Z,100039.00
2022-12-28T20:09:14.053Z,100028.41
2022-12-28T20:11:43.045Z,100023.31
2022-12-28T20:14:13.036Z,100027.81
2022-12-28T20:16:42.771Z,100022.53
2022-12-28T20:19:13.703Z,100021.03
2022-12-28T20:21:42.621Z,100023.91
2022-12-28T20:24:13.094Z,100011.88
2022-12-28T20:26:41.590Z,100004.97
2022-12-28T20:29:09.910Z,100002.00
2022-12-28T20:31:38.799Z,99989.09
2022-12-28T20:34:07.591Z,99993.03
2022-12-28T20:36:37.818Z,99991.03
2022-12-28T20:39:06.327Z,99983.50
2022-12-28T20:41:52.702Z,99982.00
2022-12-28T20:44:26.631Z,99970.31
2022-12-28T20:46:55.726Z,99965.75
2022-12-28T20:49:25.436Z,99968.22
2022-12-28T20:51:56.004Z,99956.25
2022-12-28T20:54:25.572Z,99953.94
2022-12-28T20:56:55.839Z,99948.72
2022-12-28T20:59:26.354Z,99946.44
2022-12-28T21:01:55.448Z,99946.44
2022-12-28T21:04:25.848Z,99942.53
2022-12-28T21:06:56.110Z,99923.28
2022-12-28T21:09:24.346Z,99919.00
2022-12-28T21:11:52.646Z,99913.34
2022-12-28T21:14:20.822Z,99903.13
2022-12-28T21:16:49.485Z,99915.34
2022-12-28T21:19:17.909Z,99913.69
2022-12-28T21:21:48.405Z,99908.97
2022-12-28T21:24:18.432Z,99895.25
2022-12-28T21:26:46.788Z,99897.84
2022-12-28T21:29:17.863Z,99895.84
2022-12-28T21:31:51.885Z,99883.38
2022-12-28T21:34:19.944Z,99882.28
2022-12-28T21:36:48.030Z,99886.16
2022-12-28T21:39:17.433Z,99880.34
2022-12-28T21:41:51.785Z,99879.97
2022-12-28T21:44:22.264Z,99869.59
2022-12-28T21:46:52.030Z,99876.88
2022-12-28T21:49:20.797Z,99857.75
2022-12-28T21:51:48.791Z,99860.22
2022-12-28T21:54:19.461Z,99847.16
2022-12-28T21:56:51.257Z,99855.19
2022-12-28T21:59:19.419Z,99867.41
2022-12-28T22:02:04.930Z,99847.97
2022-12-28T22:04:50.449Z,99858.28
2022-12-28T22:07:21.159Z,99862.47
2022-12-28T22:10:08.091Z,99850.53
2022-12-28T22:12:37.312Z,99848.72
2022-12-28T22:15:26.896Z,99851.56
2022-12-28T22:17:56.408Z,99853.63
2022-12-28T22:20:25.404Z,99846.59
2022-12-28T22:22:56.133Z,99844.25
2022-12-28T22:25:26.777Z,99825.16
2022-12-28T22:27:55.251Z,99840.69
2022-12-28T22:30:23.809Z,99835.38
2022-12-28T22:32:53.131Z,99833.03
2022-12-28T22:35:22.149Z,99823.31
2022-12-28T22:37:51.083Z,99829.09
2022-12-28T22:40:19.699Z,99834.63
2022-12-28T22:42:51.290Z,99824.00
2022-12-28T22:45:21.073Z,99840.41
2022-12-28T22:47:50.250Z,99834.22
2022-12-28T22:50:19.951Z,99824.75
2022-12-28T22:52:48.301Z,99821.72
2022-12-28T22:55:16.642Z,99823.53
2022-12-28T22:57:45.271Z,99823.63
2022-12-28T23:00:16.175Z,99820.78
2022-12-28T23:02:45.128Z,99818.47
2022-12-28T23:05:13.505Z,99816.50
2022-12-28T23:07:41.724Z,99823.13
2022-12-28T23:10:11.206Z,99804.22
2022-12-28T23:12:39.226Z,99814.69
2022-12-28T23:15:16.531Z,99810.41
2022-12-28T23:17:46.577Z,99828.38
2022-12-28T23:20:32.200Z,99809.28
2022-12-28T23:23:17.633Z,99812.78
2022-12-28T23:26:03.134Z,99807.66
2022-12-28T23:28:31.087Z,99802.75
2022-12-28T23:30:59.077Z,99808.91
2022-12-28T23:33:28.697Z,99812.31
2022-12-28T23:35:56.635Z,99805.97
2022-12-28T23:38:24.504Z,99807.34
2022-12-28T23:41:12.553Z,99799.16
2022-12-28T23:43:40.471Z,99794.25
2022-12-28T23:46:08.403Z,99793.25
2022-12-28T23:48:37.877Z,99788.34
2022-12-28T23:51:08.101Z,99784.25
2022-12-28T23:53:36.377Z,99781.53
2022-12-28T23:56:04.198Z,99772.28
2022-12-28T23:58:32.126Z,99762.69
